sensor_id;sensor_type;location;lat;lon;timestamp;P1;durP1;ratioP1;P2;durP2;ratioP2
58697;SDS011;44475;53.206;-6.106;2022-12-11T00:00:00;3.83;;;2.80;;
58697;SDS011;44475;53.206;-6.106;2022-12-11T00:02:29;4.38;;;2.70;;
58697;SDS011;44475;53.206;-6.106;2022-12-11T00:05:00;4.15;;;2.75;;
58697;SDS011;44475;53.206;-6.106;2022-12-11T00:07:28;5.65;;;2.65;;
58697;SDS011;44475;53.206;-6.106;2022-12-11T00:09:57;4.40;;;2.78;;
58697;SDS011;44475;53.206;-6.106;2022-12-11T00:12:28;4.00;;;2.88;;
58697;SDS011;44475;53.206;-6.106;2022-12-11T00:14:55;6.80;;;2.90;;
58697;SDS011;44475;53.206;-6.106;2022-12-11T00:17:21;7.97;;;3.15;;
58697;SDS011;44475;53.206;-6.106;2022-12-11T00:19:48;4.65;;;2.75;;
58697;SDS011;44475;53.206;-6.106;2022-12-11T00:22:22;4.55;;;2.70;;
58697;SDS011;44475;53.206;-6.106;2022-12-11T00:24:52;5.38;;;2.92;;
58697;SDS011;44475;53.206;-6.106;2022-12-11T00:27:19;6.15;;;2.78;;
58697;SDS011;44475;53.206;-6.106;2022-12-11T00:29:45;4.93;;;2.95;;
58697;SDS011;44475;53.206;-6.106;2022-12-11T00:32:12;7.40;;;2.90;;
58697;SDS011;44475;53.206;-6.106;2022-12-11T00:34:38;8.52;;;2.80;;
58697;SDS011;44475;53.206;-6.106;2022-12-11T00:37:06;9.50;;;3.10;;
58697;SDS011;44475;53.206;-6.106;2022-12-11T00:39:32;9.70;;;2.88;;
58697;SDS011;44475;53.206;-6.106;2022-12-11T00:41:59;10.85;;;2.97;;
58697;SDS011;44475;53.206;-6.106;2022-12-11T00:44:30;4.95;;;2.75;;
58697;SDS011;44475;53.206;-6.106;2022-12-11T00:47:02;6.47;;;3.28;;
58697;SDS011;44475;53.206;-6.106;2022-12-11T00:49:28;4.78;;;3.08;;
58697;SDS011;44475;53.206;-6.106;2022-12-11T00:51:56;6.50;;;2.83;;
58697;SDS011;44475;53.206;-6.106;2022-12-11T00:54:22;6.20;;;2.90;;
58697;SDS011;44475;53.206;-6.106;2022-12-11T00:56:48;6.68;;;2.78;;
58697;SDS011;44475;53.206;-6.106;2022-12-11T00:59:16;7.57;;;2.80;;
58697;SDS011;44475;53.206;-6.106;2022-12-11T01:01:46;9.30;;;3.00;;
58697;SDS011;44475;53.206;-6.106;2022-12-11T01:04:20;8.90;;;2.80;;
58697;SDS011;44475;53.206;-6.106;2022-12-11T01:06:47;7.40;;;2.80;;
58697;SDS011;44475;53.206;-6.106;2022-12-11T01:09:16;7.40;;;2.90;;
58697;SDS011;44475;53.206;-6.106;2022-12-11T01:12:02;3.95;;;2.70;;
58697;SDS011;44475;53.206;-6.106;2022-12-11T01:14:30;5.63;;;2.60;;
58697;SDS011;44475;53.206;-6.106;2022-12-11T01:16:56;5.65;;;2.80;;
58697;SDS011;44475;53.206;-6.106;2022-12-11T01:19:22;3.95;;;2.60;;
58697;SDS011;44475;53.206;-6.106;2022-12-11T01:21:50;5.38;;;2.40;;
58697;SDS011;44475;53.206;-6.106;2022-12-11T01:24:22;5.80;;;2.90;;
58697;SDS011;44475;53.206;-6.106;2022-12-11T01:26:50;6.40;;;2.90;;
58697;SDS011;44475;53.206;-6.106;2022-12-11T01:29:16;4.32;;;2.60;;
58697;SDS011;44475;53.206;-6.106;2022-12-11T01:31:46;5.80;;;2.70;;
58697;SDS011;44475;53.206;-6.106;2022-12-11T01:34:13;5.30;;;2.60;;
58697;SDS011;44475;53.206;-6.106;2022-12-11T01:36:39;5.07;;;2.80;;
58697;SDS011;44475;53.206;-6.106;2022-12-11T01:39:18;4.32;;;2.70;;
58697;SDS011;44475;53.206;-6.106;2022-12-11T01:41:44;4.55;;;2.58;;
58697;SDS011;44475;53.206;-6.106;2022-12-11T01:46:55;4.50;;;2.65;;
58697;SDS011;44475;53.206;-6.106;2022-12-11T01:49:24;4.97;;;2.63;;
58697;SDS011;44475;53.206;-6.106;2022-12-11T01:51:57;3.60;;;2.45;;
58697;SDS011;44475;53.206;-6.106;2022-12-11T01:54:27;3.53;;;2.50;;
58697;SDS011;44475;53.206;-6.106;2022-12-11T01:56:58;5.18;;;2.50;;
58697;SDS011;44475;53.206;-6.106;2022-12-11T01:59:49;6.38;;;2.53;;
58697;SDS011;44475;53.206;-6.106;2022-12-11T02:02:22;4.20;;;2.55;;
58697;SDS011;44475;53.206;-6.106;2022-12-11T02:04:52;4.03;;;2.30;;
58697;SDS011;44475;53.206;-6.106;2022-12-11T02:07:21;5.32;;;2.63;;
58697;SDS011;44475;53.206;-6.106;2022-12-11T02:09:49;3.90;;;2.30;;
58697;SDS011;44475;53.206;-6.106;2022-12-11T02:17:34;4.05;;;2.40;;
58697;SDS011;44475;53.206;-6.106;2022-12-11T02:29:06;4.57;;;2.50;;
58697;SDS011;44475;53.206;-6.106;2022-12-11T02:31:42;4.75;;;2.60;;
58697;SDS011;44475;53.206;-6.106;2022-12-11T02:34:33;4.15;;;2.40;;
58697;SDS011;44475;53.206;-6.106;2022-12-11T02:37:33;2.97;;;2.30;;
58697;SDS011;44475;53.206;-6.106;2022-12-11T02:40:39;4.40;;;2.67;;
58697;SDS011;44475;53.206;-6.106;2022-12-11T02:43:12;4.32;;;2.40;;
58697;SDS011;44475;53.206;-6.106;2022-12-11T02:45:58;3.42;;;2.47;;
58697;SDS011;44475;53.206;-6.106;2022-12-11T02:48:27;3.60;;;2.28;;
58697;SDS011;44475;53.206;-6.106;2022-12-11T02:50:55;3.30;;;2.40;;
58697;SDS011;44475;53.206;-6.106;2022-12-11T02:53:36;3.45;;;2.40;;
58697;SDS011;44475;53.206;-6.106;2022-12-11T02:58:42;4.72;;;2.40;;
58697;SDS011;44475;53.206;-6.106;2022-12-11T03:01:17;3.90;;;2.40;;
58697;SDS011;44475;53.206;-6.106;2022-12-11T03:03:43;4.35;;;2.40;;
58697;SDS011;44475;53.206;-6.106;2022-12-11T03:06:10;3.33;;;2.20;;
58697;SDS011;44475;53.206;-6.106;2022-12-11T03:08:58;3.15;;;2.35;;
58697;SDS011;44475;53.206;-6.106;2022-12-11T03:11:24;4.70;;;2.20;;
58697;SDS011;44475;53.206;-6.106;2022-12-11T03:13:50;3.72;;;2.30;;
58697;SDS011;44475;53.206;-6.106;2022-12-11T03:19:23;3.17;;;2.30;;
58697;SDS011;44475;53.206;-6.106;2022-12-11T03:24:54;4.13;;;2.40;;
58697;SDS011;44475;53.206;-6.106;2022-12-11T03:30:35;3.92;;;2.53;;
58697;SDS011;44475;53.206;-6.106;2022-12-11T03:33:18;4.82;;;2.30;;
58697;SDS011;44475;53.206;-6.106;2022-12-11T03:36:16;3.47;;;2.33;;
58697;SDS011;44475;53.206;-6.106;2022-12-11T03:38:58;4.20;;;2.50;;
58697;SDS011;44475;53.206;-6.106;2022-12-11T03:41:32;3.17;;;2.60;;
58697;SDS011;44475;53.206;-6.106;2022-12-11T03:44:06;3.47;;;2.30;;
58697;SDS011;44475;53.206;-6.106;2022-12-11T03:46:43;3.58;;;2.25;;
58697;SDS011;44475;53.206;-6.106;2022-12-11T03:49:47;3.72;;;2.42;;
58697;SDS011;44475;53.206;-6.106;2022-12-11T03:52:25;3.38;;;2.30;;
58697;SDS011;44475;53.206;-6.106;2022-12-11T03:55:00;4.57;;;2.47;;
58697;SDS011;44475;53.206;-6.106;2022-12-11T03:57:31;3.30;;;2.30;;
58697;SDS011;44475;53.206;-6.106;2022-12-11T04:00:19;3.17;;;2.22;;
58697;SDS011;44475;53.206;-6.106;2022-12-11T04:02:47;3.15;;;2.15;;
58697;SDS011;44475;53.206;-6.106;2022-12-11T04:05:35;2.50;;;2.00;;
58697;SDS011;44475;53.206;-6.106;2022-12-11T04:08:01;3.05;;;2.20;;
58697;SDS011;44475;53.206;-6.106;2022-12-11T04:10:45;4.05;;;2.17;;
58697;SDS011;44475;53.206;-6.106;2022-12-11T04:13:37;3.50;;;2.10;;
58697;SDS011;44475;53.206;-6.106;2022-12-11T04:16:10;3.25;;;2.35;;
58697;SDS011;44475;53.206;-6.106;2022-12-11T04:18:38;3.30;;;2.20;;
58697;SDS011;44475;53.206;-6.106;2022-12-11T04:21:24;3.00;;;2.10;;
58697;SDS011;44475;53.206;-6.106;2022-12-11T04:24:10;2.78;;;2.00;;
58697;SDS011;44475;53.206;-6.106;2022-12-11T04:26:41;3.00;;;2.00;;
58697;SDS011;44475;53.206;-6.106;2022-12-11T04:29:13;3.30;;;2.10;;
58697;SDS011;44475;53.206;-6.106;2022-12-11T04:31:41;2.97;;;2.10;;
58697;SDS011;44475;53.206;-6.106;2022-12-11T04:34:12;4.43;;;2.10;;
58697;SDS011;44475;53.206;-6.106;2022-12-11T04:36:42;3.00;;;2.00;;
58697;SDS011;44475;53.206;-6.106;2022-12-11T04:39:08;2.83;;;2.00;;
58697;SDS011;44475;53.206;-6.106;2022-12-11T04:41:36;3.90;;;1.98;;
58697;SDS011;44475;53.206;-6.106;2022-12-11T04:44:07;3.92;;;2.17;;
58697;SDS011;44475;53.206;-6.106;2022-12-11T04:46:36;3.00;;;2.08;;
58697;SDS011;44475;53.206;-6.106;2022-12-11T04:49:02;2.55;;;2.00;;
58697;SDS011;44475;53.206;-6.106;2022-12-11T04:51:31;2.78;;;2.05;;
58697;SDS011;44475;53.206;-6.106;2022-12-11T04:53:59;5.13;;;2.10;;
58697;SDS011;44475;53.206;-6.106;2022-12-11T04:56:25;3.08;;;2.10;;
58697;SDS011;44475;53.206;-6.106;2022-12-11T04:58:53;2.70;;;1.95;;
58697;SDS011;44475;53.206;-6.106;2022-12-11T05:01:20;3.17;;;2.00;;
58697;SDS011;44475;53.206;-6.106;2022-12-11T05:03:47;3.00;;;1.95;;
58697;SDS011;44475;53.206;-6.106;2022-12-11T05:06:15;2.25;;;1.90;;
58697;SDS011;44475;53.206;-6.106;2022-12-11T05:08:42;3.28;;;1.95;;
58697;SDS011;44475;53.206;-6.106;2022-12-11T05:11:12;2.88;;;2.00;;
58697;SDS011;44475;53.206;-6.106;2022-12-11T05:13:47;2.70;;;2.00;;
58697;SDS011;44475;53.206;-6.106;2022-12-11T05:16:17;4.38;;;1.90;;
58697;SDS011;44475;53.206;-6.106;2022-12-11T05:18:45;2.70;;;1.98;;
58697;SDS011;44475;53.206;-6.106;2022-12-11T05:21:13;2.65;;;1.90;;
58697;SDS011;44475;53.206;-6.106;2022-12-11T05:23:40;2.40;;;1.92;;
58697;SDS011;44475;53.206;-6.106;2022-12-11T05:26:16;3.50;;;2.10;;
58697;SDS011;44475;53.206;-6.106;2022-12-11T05:28:49;2.45;;;1.80;;
58697;SDS011;44475;53.206;-6.106;2022-12-11T05:31:20;2.90;;;2.00;;
58697;SDS011;44475;53.206;-6.106;2022-12-11T05:33:49;2.92;;;2.05;;
58697;SDS011;44475;53.206;-6.106;2022-12-11T05:36:38;2.63;;;1.95;;
58697;SDS011;44475;53.206;-6.106;2022-12-11T05:39:05;3.17;;;1.98;;
58697;SDS011;44475;53.206;-6.106;2022-12-11T05:41:31;2.10;;;1.80;;
58697;SDS011;44475;53.206;-6.106;2022-12-11T05:44:01;2.65;;;2.00;;
58697;SDS011;44475;53.206;-6.106;2022-12-11T05:46:29;2.72;;;1.90;;
58697;SDS011;44475;53.206;-6.106;2022-12-11T05:49:11;3.70;;;1.98;;
58697;SDS011;44475;53.206;-6.106;2022-12-11T05:51:40;2.20;;;1.90;;
58697;SDS011;44475;53.206;-6.106;2022-12-11T05:54:08;2.97;;;1.83;;
58697;SDS011;44475;53.206;-6.106;2022-12-11T05:56:38;2.55;;;1.80;;
58697;SDS011;44475;53.206;-6.106;2022-12-11T05:59:04;2.67;;;1.98;;
58697;SDS011;44475;53.206;-6.106;2022-12-11T06:04:02;2.85;;;2.00;;
58697;SDS011;44475;53.206;-6.106;2022-12-11T06:06:31;3.05;;;1.90;;
58697;SDS011;44475;53.206;-6.106;2022-12-11T06:09:03;2.25;;;1.80;;
58697;SDS011;44475;53.206;-6.106;2022-12-11T06:11:40;2.30;;;1.80;;
58697;SDS011;44475;53.206;-6.106;2022-12-11T06:14:08;2.70;;;1.90;;
58697;SDS011;44475;53.206;-6.106;2022-12-11T06:16:36;2.65;;;1.90;;
58697;SDS011;44475;53.206;-6.106;2022-12-11T06:19:04;2.47;;;1.90;;
58697;SDS011;44475;53.206;-6.106;2022-12-11T06:21:32;2.33;;;1.80;;
58697;SDS011;44475;53.206;-6.106;2022-12-11T06:24:05;2.15;;;1.80;;
58697;SDS011;44475;53.206;-6.106;2022-12-11T06:26:33;2.58;;;1.73;;
58697;SDS011;44475;53.206;-6.106;2022-12-11T06:28:59;4.10;;;1.90;;
58697;SDS011;44475;53.206;-6.106;2022-12-11T06:31:26;2.22;;;1.60;;
58697;SDS011;44475;53.206;-6.106;2022-12-11T06:33:52;2.00;;;1.80;;
58697;SDS011;44475;53.206;-6.106;2022-12-11T06:36:19;2.78;;;1.80;;
58697;SDS011;44475;53.206;-6.106;2022-12-11T06:38:48;2.30;;;1.67;;
58697;SDS011;44475;53.206;-6.106;2022-12-11T06:41:17;3.45;;;1.90;;
58697;SDS011;44475;53.206;-6.106;2022-12-11T06:43:43;2.30;;;1.80;;
58697;SDS011;44475;53.206;-6.106;2022-12-11T06:46:11;4.75;;;2.03;;
58697;SDS011;44475;53.206;-6.106;2022-12-11T06:48:42;2.63;;;1.80;;
58697;SDS011;44475;53.206;-6.106;2022-12-11T06:51:12;2.53;;;1.92;;
58697;SDS011;44475;53.206;-6.106;2022-12-11T06:53:44;2.50;;;1.77;;
58697;SDS011;44475;53.206;-6.106;2022-12-11T06:56:28;2.70;;;1.77;;
58697;SDS011;44475;53.206;-6.106;2022-12-11T06:58:55;2.60;;;1.83;;
58697;SDS011;44475;53.206;-6.106;2022-12-11T07:01:23;1.90;;;1.67;;
58697;SDS011;44475;53.206;-6.106;2022-12-11T07:03:54;2.35;;;1.70;;
58697;SDS011;44475;53.206;-6.106;2022-12-11T07:06:22;2.30;;;1.70;;
58697;SDS011;44475;53.206;-6.106;2022-12-11T07:08:50;2.42;;;1.85;;
58697;SDS011;44475;53.206;-6.106;2022-12-11T07:11:16;2.60;;;1.70;;
58697;SDS011;44475;53.206;-6.106;2022-12-11T07:13:48;2.40;;;1.80;;
58697;SDS011;44475;53.206;-6.106;2022-12-11T07:16:15;2.95;;;1.70;;
58697;SDS011;44475;53.206;-6.106;2022-12-11T07:18:51;3.15;;;2.05;;
58697;SDS011;44475;53.206;-6.106;2022-12-11T07:21:17;1.58;;;1.48;;
58697;SDS011;44475;53.206;-6.106;2022-12-11T07:23:46;2.88;;;1.80;;
58697;SDS011;44475;53.206;-6.106;2022-12-11T07:26:16;1.67;;;1.58;;
58697;SDS011;44475;53.206;-6.106;2022-12-11T07:28:47;2.47;;;1.70;;
58697;SDS011;44475;53.206;-6.106;2022-12-11T07:31:19;3.00;;;1.60;;
58697;SDS011;44475;53.206;-6.106;2022-12-11T07:34:10;3.53;;;1.60;;
58697;SDS011;44475;53.206;-6.106;2022-12-11T07:36:43;2.05;;;1.60;;
58697;SDS011;44475;53.206;-6.106;2022-12-11T07:39:10;2.13;;;1.63;;
58697;SDS011;44475;53.206;-6.106;2022-12-11T07:41:40;1.73;;;1.60;;
58697;SDS011;44475;53.206;-6.106;2022-12-11T07:44:11;2.22;;;1.65;;
58697;SDS011;44475;53.206;-6.106;2022-12-11T07:46:43;3.05;;;1.70;;
58697;SDS011;44475;53.206;-6.106;2022-12-11T07:49:09;2.25;;;1.50;;
58697;SDS011;44475;53.206;-6.106;2022-12-11T07:51:41;2.85;;;1.77;;
58697;SDS011;44475;53.206;-6.106;2022-12-11T07:54:10;2.58;;;1.70;;
58697;SDS011;44475;53.206;-6.106;2022-12-11T07:56:41;2.20;;;1.50;;
58697;SDS011;44475;53.206;-6.106;2022-12-11T07:59:12;2.28;;;1.70;;
58697;SDS011;44475;53.206;-6.106;2022-12-11T08:01:39;2.30;;;1.60;;
58697;SDS011;44475;53.206;-6.106;2022-12-11T08:04:07;2.20;;;1.55;;
58697;SDS011;44475;53.206;-6.106;2022-12-11T08:06:42;2.22;;;1.55;;
58697;SDS011;44475;53.206;-6.106;2022-12-11T08:09:12;1.60;;;1.50;;
58697;SDS011;44475;53.206;-6.106;2022-12-11T08:11:51;3.08;;;1.80;;
58697;SDS011;44475;53.206;-6.106;2022-12-11T08:14:17;2.10;;;1.60;;
58697;SDS011;44475;53.206;-6.106;2022-12-11T08:16:45;1.55;;;1.45;;
58697;SDS011;44475;53.206;-6.106;2022-12-11T08:19:11;1.88;;;1.60;;
58697;SDS011;44475;53.206;-6.106;2022-12-11T08:21:41;1.80;;;1.60;;
58697;SDS011;44475;53.206;-6.106;2022-12-11T08:24:10;2.00;;;1.40;;
58697;SDS011;44475;53.206;-6.106;2022-12-11T08:26:48;1.90;;;1.42;;
58697;SDS011;44475;53.206;-6.106;2022-12-11T08:29:15;1.83;;;1.52;;
58697;SDS011;44475;53.206;-6.106;2022-12-11T08:31:41;1.60;;;1.50;;
58697;SDS011;44475;53.206;-6.106;2022-12-11T08:34:11;1.63;;;1.50;;
58697;SDS011;44475;53.206;-6.106;2022-12-11T08:36:41;1.80;;;1.65;;
58697;SDS011;44475;53.206;-6.106;2022-12-11T08:39:08;1.88;;;1.50;;
58697;SDS011;44475;53.206;-6.106;2022-12-11T08:41:36;1.80;;;1.50;;
58697;SDS011;44475;53.206;-6.106;2022-12-11T08:44:03;2.00;;;1.40;;
58697;SDS011;44475;53.206;-6.106;2022-12-11T08:46:30;1.58;;;1.40;;
58697;SDS011;44475;53.206;-6.106;2022-12-11T08:48:59;2.22;;;1.60;;
58697;SDS011;44475;53.206;-6.106;2022-12-11T08:51:26;2.75;;;1.52;;
58697;SDS011;44475;53.206;-6.106;2022-12-11T08:54:14;2.47;;;1.60;;
58697;SDS011;44475;53.206;-6.106;2022-12-11T08:56:40;2.13;;;1.40;;
58697;SDS011;44475;53.206;-6.106;2022-12-11T08:59:07;1.98;;;1.60;;
58697;SDS011;44475;53.206;-6.106;2022-12-11T09:01:41;1.80;;;1.40;;
58697;SDS011;44475;53.206;-6.106;2022-12-11T09:04:08;1.90;;;1.60;;
58697;SDS011;44475;53.206;-6.106;2022-12-11T09:06:41;2.10;;;1.58;;
58697;SDS011;44475;53.206;-6.106;2022-12-11T09:09:12;1.95;;;1.40;;
58697;SDS011;44475;53.206;-6.106;2022-12-11T09:11:39;1.58;;;1.45;;
58697;SDS011;44475;53.206;-6.106;2022-12-11T09:14:06;1.55;;;1.40;;
58697;SDS011;44475;53.206;-6.106;2022-12-11T09:16:33;1.67;;;1.40;;
58697;SDS011;44475;53.206;-6.106;2022-12-11T09:19:08;1.60;;;1.50;;
58697;SDS011;44475;53.206;-6.106;2022-12-11T09:21:43;1.50;;;1.40;;
58697;SDS011;44475;53.206;-6.106;2022-12-11T09:24:15;1.50;;;1.40;;
58697;SDS011;44475;53.206;-6.106;2022-12-11T09:26:41;1.60;;;1.50;;
58697;SDS011;44475;53.206;-6.106;2022-12-11T09:29:09;2.55;;;1.50;;
58697;SDS011;44475;53.206;-6.106;2022-12-11T09:31:39;2.13;;;1.60;;
58697;SDS011;44475;53.206;-6.106;2022-12-11T09:34:06;1.80;;;1.45;;
58697;SDS011;44475;53.206;-6.106;2022-12-11T09:36:38;2.03;;;1.40;;
58697;SDS011;44475;53.206;-6.106;2022-12-11T09:39:06;1.65;;;1.48;;
58697;SDS011;44475;53.206;-6.106;2022-12-11T09:42:24;1.77;;;1.60;;
58697;SDS011;44475;53.206;-6.106;2022-12-11T09:44:32;1.88;;;1.30;;
58697;SDS011;44475;53.206;-6.106;2022-12-11T09:55:48;1.65;;;1.40;;
58697;SDS011;44475;53.206;-6.106;2022-12-11T10:01:12;1.58;;;1.42;;
58697;SDS011;44475;53.206;-6.106;2022-12-11T10:10:08;1.95;;;1.50;;
58697;SDS011;44475;53.206;-6.106;2022-12-11T10:12:43;1.63;;;1.35;;
58697;SDS011;44475;53.206;-6.106;2022-12-11T10:15:25;1.50;;;1.40;;
58697;SDS011;44475;53.206;-6.106;2022-12-11T10:21:17;2.40;;;1.50;;
58697;SDS011;44475;53.206;-6.106;2022-12-11T10:24:10;2.30;;;1.48;;
58697;SDS011;44475;53.206;-6.106;2022-12-11T10:26:54;2.45;;;1.40;;
58697;SDS011;44475;53.206;-6.106;2022-12-11T10:36:07;1.73;;;1.30;;
58697;SDS011;44475;53.206;-6.106;2022-12-11T10:38:41;1.20;;;1.10;;
58697;SDS011;44475;53.206;-6.106;2022-12-11T10:43:39;2.78;;;1.40;;
58697;SDS011;44475;53.206;-6.106;2022-12-11T10:46:24;2.28;;;1.50;;
58697;SDS011;44475;53.206;-6.106;2022-12-11T10:49:17;1.42;;;1.30;;
58697;SDS011;44475;53.206;-6.106;2022-12-11T10:52:26;2.85;;;1.40;;
58697;SDS011;44475;53.206;-6.106;2022-12-11T10:58:14;1.50;;;1.40;;
58697;SDS011;44475;53.206;-6.106;2022-12-11T11:06:41;1.58;;;1.40;;
58697;SDS011;44475;53.206;-6.106;2022-12-11T11:12:19;2.45;;;1.40;;
58697;SDS011;44475;53.206;-6.106;2022-12-11T11:15:29;1.65;;;1.40;;
58697;SDS011;44475;53.206;-6.106;2022-12-11T11:17:56;2.22;;;1.40;;
58697;SDS011;44475;53.206;-6.106;2022-12-11T11:21:16;8.20;;;1.42;;
58697;SDS011;44475;53.206;-6.106;2022-12-11T11:24:04;8.23;;;1.92;;
58697;SDS011;44475;53.206;-6.106;2022-12-11T11:26:31;6.85;;;1.45;;
58697;SDS011;44475;53.206;-6.106;2022-12-11T11:29:21;5.15;;;1.60;;
58697;SDS011;44475;53.206;-6.106;2022-12-11T11:32:13;3.55;;;1.50;;
58697;SDS011;44475;53.206;-6.106;2022-12-11T11:37:39;3.30;;;1.40;;
58697;SDS011;44475;53.206;-6.106;2022-12-11T11:43:31;4.85;;;1.98;;
58697;SDS011;44475;53.206;-6.106;2022-12-11T11:46:25;8.77;;;2.28;;
58697;SDS011;44475;53.206;-6.106;2022-12-11T12:00:06;25.20;;;2.75;;
58697;SDS011;44475;53.206;-6.106;2022-12-11T12:02:46;27.92;;;3.28;;
58697;SDS011;44475;53.206;-6.106;2022-12-11T12:05:15;41.00;;;4.10;;
58697;SDS011;44475;53.206;-6.106;2022-12-11T12:07:54;37.70;;;3.70;;
58697;SDS011;44475;53.206;-6.106;2022-12-11T12:10:31;39.83;;;4.53;;
58697;SDS011;44475;53.206;-6.106;2022-12-11T12:13:30;53.80;;;5.40;;
58697;SDS011;44475;53.206;-6.106;2022-12-11T12:16:10;55.72;;;5.43;;
58697;SDS011;44475;53.206;-6.106;2022-12-11T12:21:36;77.10;;;6.40;;
58697;SDS011;44475;53.206;-6.106;2022-12-11T12:27:12;56.65;;;6.28;;
58697;SDS011;44475;53.206;-6.106;2022-12-11T12:35:37;73.82;;;7.25;;
58697;SDS011;44475;53.206;-6.106;2022-12-11T12:38:46;63.20;;;6.15;;
58697;SDS011;44475;53.206;-6.106;2022-12-11T12:44:21;63.67;;;7.22;;
58697;SDS011;44475;53.206;-6.106;2022-12-11T12:49:32;70.55;;;7.28;;
58697;SDS011;44475;53.206;-6.106;2022-12-11T12:52:05;54.55;;;6.20;;
58697;SDS011;44475;53.206;-6.106;2022-12-11T12:54:47;54.42;;;6.60;;
58697;SDS011;44475;53.206;-6.106;2022-12-11T12:57:37;70.05;;;6.22;;
58697;SDS011;44475;53.206;-6.106;2022-12-11T13:00:07;87.68;;;7.80;;
58697;SDS011;44475;53.206;-6.106;2022-12-11T13:02:36;76.95;;;7.35;;
58697;SDS011;44475;53.206;-6.106;2022-12-11T13:05:20;76.38;;;7.28;;
58697;SDS011;44475;53.206;-6.106;2022-12-11T13:07:49;52.90;;;6.28;;
58697;SDS011;44475;53.206;-6.106;2022-12-11T13:10:23;55.97;;;7.22;;
58697;SDS011;44475;53.206;-6.106;2022-12-11T13:12:56;45.65;;;5.95;;
58697;SDS011;44475;53.206;-6.106;2022-12-11T13:15:39;47.45;;;5.30;;
58697;SDS011;44475;53.206;-6.106;2022-12-11T13:23:49;41.05;;;5.25;;
58697;SDS011;44475;53.206;-6.106;2022-12-11T13:26:26;52.30;;;5.32;;
58697;SDS011;44475;53.206;-6.106;2022-12-11T13:28:57;43.63;;;5.70;;
58697;SDS011;44475;53.206;-6.106;2022-12-11T13:31:26;45.53;;;5.25;;
58697;SDS011;44475;53.206;-6.106;2022-12-11T13:36:45;34.20;;;4.80;;
58697;SDS011;44475;53.206;-6.106;2022-12-11T13:39:23;33.87;;;4.70;;
58697;SDS011;44475;53.206;-6.106;2022-12-11T13:42:06;35.40;;;4.63;;
58697;SDS011;44475;53.206;-6.106;2022-12-11T13:44:46;30.30;;;4.60;;
58697;SDS011;44475;53.206;-6.106;2022-12-11T13:47:13;27.73;;;4.80;;
58697;SDS011;44475;53.206;-6.106;2022-12-11T13:49:43;26.25;;;4.18;;
58697;SDS011;44475;53.206;-6.106;2022-12-11T13:52:15;29.02;;;4.43;;
58697;SDS011;44475;53.206;-6.106;2022-12-11T13:54:51;25.10;;;3.85;;
58697;SDS011;44475;53.206;-6.106;2022-12-11T13:57:20;26.30;;;3.80;;
58697;SDS011;44475;53.206;-6.106;2022-12-11T13:59:53;25.17;;;4.15;;
58697;SDS011;44475;53.206;-6.106;2022-12-11T14:02:28;18.65;;;4.03;;
58697;SDS011;44475;53.206;-6.106;2022-12-11T14:05:01;27.75;;;4.90;;
58697;SDS011;44475;53.206;-6.106;2022-12-11T14:07:37;23.52;;;4.22;;
58697;SDS011;44475;53.206;-6.106;2022-12-11T14:10:15;18.58;;;3.88;;
58697;SDS011;44475;53.206;-6.106;2022-12-11T14:13:34;26.42;;;4.00;;
58697;SDS011;44475;53.206;-6.106;2022-12-11T14:15:45;15.88;;;3.70;;
58697;SDS011;44475;53.206;-6.106;2022-12-11T14:18:13;20.63;;;3.28;;
58697;SDS011;44475;53.206;-6.106;2022-12-11T14:20:44;17.23;;;3.27;;
58697;SDS011;44475;53.206;-6.106;2022-12-11T14:25:52;17.60;;;3.28;;
58697;SDS011;44475;53.206;-6.106;2022-12-11T14:28:18;18.63;;;3.58;;
58697;SDS011;44475;53.206;-6.106;2022-12-11T14:30:49;18.90;;;3.33;;
58697;SDS011;44475;53.206;-6.106;2022-12-11T14:33:16;17.15;;;3.33;;
58697;SDS011;44475;53.206;-6.106;2022-12-11T14:35:46;16.13;;;3.00;;
58697;SDS011;44475;53.206;-6.106;2022-12-11T14:41:10;14.55;;;2.75;;
58697;SDS011;44475;53.206;-6.106;2022-12-11T14:43:50;13.30;;;3.20;;
58697;SDS011;44475;53.206;-6.106;2022-12-11T14:46:31;17.08;;;3.28;;
58697;SDS011;44475;53.206;-6.106;2022-12-11T14:52:12;14.07;;;2.85;;
58697;SDS011;44475;53.206;-6.106;2022-12-11T14:54:52;15.43;;;2.63;;
58697;SDS011;44475;53.206;-6.106;2022-12-11T14:57:27;21.30;;;3.45;;
58697;SDS011;44475;53.206;-6.106;2022-12-11T14:59:55;20.50;;;2.78;;
58697;SDS011;44475;53.206;-6.106;2022-12-11T15:02:24;15.52;;;2.90;;
58697;SDS011;44475;53.206;-6.106;2022-12-11T15:07:28;15.13;;;3.33;;
58697;SDS011;44475;53.206;-6.106;2022-12-11T15:09:54;14.32;;;2.63;;
58697;SDS011;44475;53.206;-6.106;2022-12-11T15:12:20;15.65;;;2.47;;
58697;SDS011;44475;53.206;-6.106;2022-12-11T15:17:13;13.23;;;2.42;;
58697;SDS011;44475;53.206;-6.106;2022-12-11T15:19:40;15.07;;;2.85;;
58697;SDS011;44475;53.206;-6.106;2022-12-11T15:22:11;18.27;;;3.40;;
58697;SDS011;44475;53.206;-6.106;2022-12-11T15:24:41;18.90;;;2.80;;
58697;SDS011;44475;53.206;-6.106;2022-12-11T15:27:24;15.40;;;2.85;;
58697;SDS011;44475;53.206;-6.106;2022-12-11T15:32:44;12.80;;;2.70;;
58697;SDS011;44475;53.206;-6.106;2022-12-11T15:35:24;11.05;;;2.53;;
58697;SDS011;44475;53.206;-6.106;2022-12-11T15:37:51;12.82;;;2.47;;
58697;SDS011;44475;53.206;-6.106;2022-12-11T15:40:19;12.15;;;2.40;;
58697;SDS011;44475;53.206;-6.106;2022-12-11T15:42:47;11.70;;;2.88;;
58697;SDS011;44475;53.206;-6.106;2022-12-11T15:45:19;16.83;;;2.80;;
58697;SDS011;44475;53.206;-6.106;2022-12-11T15:47:50;11.23;;;2.63;;
58697;SDS011;44475;53.206;-6.106;2022-12-11T15:50:18;8.57;;;2.40;;
58697;SDS011;44475;53.206;-6.106;2022-12-11T15:52:47;13.32;;;2.53;;
58697;SDS011;44475;53.206;-6.106;2022-12-11T15:55:15;16.00;;;2.58;;
58697;SDS011;44475;53.206;-6.106;2022-12-11T15:57:52;13.13;;;2.53;;
58697;SDS011;44475;53.206;-6.106;2022-12-11T16:00:21;9.68;;;2.50;;
58697;SDS011;44475;53.206;-6.106;2022-12-11T16:02:48;13.48;;;2.65;;
58697;SDS011;44475;53.206;-6.106;2022-12-11T16:05:16;8.90;;;2.33;;
58697;SDS011;44475;53.206;-6.106;2022-12-11T16:07:42;18.60;;;2.60;;
58697;SDS011;44475;53.206;-6.106;2022-12-11T16:10:13;11.02;;;2.60;;
58697;SDS011;44475;53.206;-6.106;2022-12-11T16:12:47;18.38;;;2.30;;
58697;SDS011;44475;53.206;-6.106;2022-12-11T16:15:13;12.57;;;2.47;;
58697;SDS011;44475;53.206;-6.106;2022-12-11T16:17:40;15.18;;;2.70;;
58697;SDS011;44475;53.206;-6.106;2022-12-11T16:20:07;11.65;;;2.63;;
58697;SDS011;44475;53.206;-6.106;2022-12-11T16:22:35;16.40;;;2.78;;
58697;SDS011;44475;53.206;-6.106;2022-12-11T16:25:01;18.98;;;2.90;;
58697;SDS011;44475;53.206;-6.106;2022-12-11T16:27:28;15.45;;;2.80;;
58697;SDS011;44475;53.206;-6.106;2022-12-11T16:29:54;19.02;;;2.47;;
58697;SDS011;44475;53.206;-6.106;2022-12-11T16:32:20;12.82;;;2.40;;
58697;SDS011;44475;53.206;-6.106;2022-12-11T16:34:47;10.50;;;2.53;;
58697;SDS011;44475;53.206;-6.106;2022-12-11T16:37:13;11.98;;;2.60;;
58697;SDS011;44475;53.206;-6.106;2022-12-11T16:39:39;8.55;;;2.25;;
58697;SDS011;44475;53.206;-6.106;2022-12-11T16:42:07;12.63;;;2.70;;
58697;SDS011;44475;53.206;-6.106;2022-12-11T16:44:33;11.15;;;2.65;;
58697;SDS011;44475;53.206;-6.106;2022-12-11T16:46:59;8.35;;;2.35;;
58697;SDS011;44475;53.206;-6.106;2022-12-11T16:49:25;12.40;;;2.50;;
58697;SDS011;44475;53.206;-6.106;2022-12-11T16:51:52;9.07;;;2.78;;
58697;SDS011;44475;53.206;-6.106;2022-12-11T16:54:18;10.93;;;2.75;;
58697;SDS011;44475;53.206;-6.106;2022-12-11T16:56:44;6.68;;;2.60;;
58697;SDS011;44475;53.206;-6.106;2022-12-11T16:59:10;10.52;;;2.97;;
58697;SDS011;44475;53.206;-6.106;2022-12-11T17:01:37;10.05;;;2.67;;
58697;SDS011;44475;53.206;-6.106;2022-12-11T17:04:03;7.68;;;2.70;;
58697;SDS011;44475;53.206;-6.106;2022-12-11T17:06:30;8.93;;;2.78;;
58697;SDS011;44475;53.206;-6.106;2022-12-11T17:08:57;5.65;;;2.70;;
58697;SDS011;44475;53.206;-6.106;2022-12-11T17:11:23;8.05;;;3.20;;
58697;SDS011;44475;53.206;-6.106;2022-12-11T17:13:57;8.30;;;2.75;;